createdAt,value
2023-04-26T00:00:08.893Z,12.27
2023-04-26T00:05:05.770Z,11.70
2023-04-26T00:09:58.521Z,15.50
2023-04-26T00:14:51.208Z,13.00
2023-04-26T00:19:43.825Z,10.93
2023-04-26T00:24:38.201Z,12.27
2023-04-26T00:29:30.764Z,12.13
2023-04-26T00:34:23.401Z,31.70
2023-04-26T00:39:16.333Z,30.43
2023-04-26T00:44:10.369Z,34.43
2023-04-26T00:49:03.533Z,26.07
2023-04-26T00:53:56.334Z,24.80
2023-04-26T00:58:49.129Z,24.27
2023-04-26T01:03:44.552Z,26.70
2023-04-26T01:08:37.707Z,32.50
2023-04-26T01:13:30.879Z,32.67
2023-04-26T01:18:23.494Z,41.97
2023-04-26T01:23:17.491Z,41.70
2023-04-26T01:28:10.149Z,41.80
2023-04-26T01:33:02.807Z,42.93
2023-04-26T01:37:55.543Z,43.60
2023-04-26T01:42:49.498Z,43.80
2023-04-26T01:47:42.101Z,45.03
2023-04-26T01:52:34.749Z,52.80
2023-04-26T01:57:27.408Z,66.90
2023-04-26T02:02:21.513Z,125.10
2023-04-26T02:07:14.127Z,52.77
2023-04-26T02:12:11.540Z,50.53
2023-04-26T02:17:04.564Z,42.33
2023-04-26T02:21:59.152Z,44.40
2023-04-26T02:26:51.893Z,37.17
2023-04-26T02:31:44.555Z,45.57
2023-04-26T02:36:37.303Z,43.87
2023-04-26T02:41:32.220Z,49.33
2023-04-26T02:46:24.976Z,50.90
2023-04-26T02:51:17.661Z,51.87
2023-04-26T02:56:11.355Z,43.20
2023-04-26T03:01:06.365Z,44.00
2023-04-26T03:05:59.073Z,40.33
2023-04-26T03:10:51.767Z,40.43
2023-04-26T03:15:45.518Z,34.63
2023-04-26T03:20:39.426Z,35.50
2023-04-26T03:25:32.074Z,33.97
2023-04-26T03:30:24.859Z,31.77
2023-04-26T03:35:17.530Z,34.57
2023-04-26T03:40:12.316Z,30.47
2023-04-26T03:45:05.616Z,28.37
2023-04-26T03:49:58.314Z,31.10
2023-04-26T03:54:51.229Z,37.00
2023-04-26T03:59:45.322Z,31.60
2023-04-26T04:04:38.169Z,34.07
2023-04-26T04:09:30.970Z,33.93
2023-04-26T04:14:23.516Z,30.17
2023-04-26T04:19:17.705Z,38.33
2023-04-26T04:24:11.430Z,41.70
2023-04-26T04:29:09.181Z,48.87
2023-04-26T04:34:03.890Z,68.47
2023-04-26T04:38:58.181Z,40.57
2023-04-26T04:43:50.971Z,44.47
2023-04-26T04:48:44.379Z,52.70
2023-04-26T04:53:37.310Z,38.10
2023-04-26T04:58:31.556Z,30.27
2023-04-26T05:03:24.419Z,26.33
2023-04-26T05:08:17.280Z,27.63
2023-04-26T05:13:10.148Z,25.80
2023-04-26T05:18:05.069Z,25.80
2023-04-26T05:22:58.302Z,25.70
2023-04-26T05:27:51.627Z,27.53
2023-04-26T05:33:02.527Z,26.83
2023-04-26T05:38:16.757Z,20.87
2023-04-26T05:43:10.130Z,21.80
2023-04-26T05:48:04.292Z,24.07
2023-04-26T05:52:56.858Z,18.30
2023-04-26T05:57:50.873Z,17.77
2023-04-26T06:02:43.575Z,17.00
2023-04-26T06:07:40.989Z,18.33
2023-04-26T06:12:33.868Z,22.77
2023-04-26T06:17:28.657Z,22.60
2023-04-26T06:22:21.696Z,20.20
2023-04-26T06:27:14.424Z,22.23
2023-04-26T06:32:11.508Z,20.80
2023-04-26T06:37:05.768Z,20.53
2023-04-26T06:41:59.176Z,20.50
2023-04-26T06:47:03.475Z,19.13
2023-04-26T06:51:57.727Z,17.60
2023-04-26T06:56:51.622Z,17.03
2023-04-26T07:01:44.208Z,13.50
2023-04-26T07:06:39.147Z,13.50
2023-04-26T07:11:32.183Z,20.03
2023-04-26T07:16:27.437Z,21.43
2023-04-26T07:21:20.491Z,23.20
2023-04-26T07:26:13.175Z,18.03
2023-04-26T07:31:08.488Z,18.63
2023-04-26T07:36:03.678Z,14.73
2023-04-26T07:40:56.221Z,14.57
2023-04-26T07:45:49.002Z,11.70
2023-04-26T07:50:41.528Z,14.50
2023-04-26T07:55:37.385Z,14.00
2023-04-26T08:00:30.173Z,13.43
2023-04-26T08:05:22.895Z,15.27
2023-04-26T08:10:15.881Z,15.67
2023-04-26T08:15:10.633Z,15.10
2023-04-26T08:20:04.991Z,11.00
2023-04-26T08:24:57.566Z,29.97
2023-04-26T08:29:50.109Z,9.90
2023-04-26T08:34:44.008Z,12.90
2023-04-26T08:39:36.636Z,12.20
2023-04-26T08:44:29.479Z,15.97
2023-04-26T08:49:25.988Z,11.27
2023-04-26T08:54:20.368Z,11.00
2023-04-26T08:59:15.028Z,35.47
2023-04-26T09:04:08.355Z,12.30
2023-04-26T09:09:04.784Z,11.97
2023-04-26T09:13:58.667Z,12.20
2023-04-26T09:18:52.494Z,14.50
2023-04-26T09:23:57.981Z,10.77
2023-04-26T09:28:51.049Z,15.30
2023-04-26T09:39:03.961Z,11.80
2023-04-26T09:43:56.820Z,10.77
2023-04-26T09:49:01.221Z,14.47
2023-04-26T09:53:55.066Z,10.60
2023-04-26T09:58:59.063Z,10.83
2023-04-26T10:03:52.618Z,12.23
2023-04-26T10:08:45.442Z,10.37
2023-04-26T10:13:38.281Z,8.00
2023-04-26T10:18:32.728Z,9.97
2023-04-26T10:23:26.154Z,11.10
2023-04-26T10:28:18.744Z,10.10
2023-04-26T10:33:17.560Z,6.17
2023-04-26T10:38:12.055Z,6.80
2023-04-26T10:43:23.729Z,9.20
2023-04-26T10:48:18.426Z,7.00
2023-04-26T10:53:12.898Z,8.70
2023-04-26T10:58:25.431Z,6.63
2023-04-26T11:03:18.735Z,7.70
2023-04-26T11:08:17.937Z,7.73
2023-04-26T11:13:10.867Z,9.87
2023-04-26T11:18:04.358Z,6.07
2023-04-26T11:22:58.761Z,6.07
2023-04-26T11:27:52.729Z,7.90
2023-04-26T11:32:46.744Z,9.90
2023-04-26T11:37:39.309Z,6.50
2023-04-26T11:42:31.875Z,8.27
2023-04-26T11:47:26.095Z,8.90
2023-04-26T11:52:19.322Z,9.07
2023-04-26T11:57:17.340Z,8.30
2023-04-26T12:02:10.786Z,9.27
2023-04-26T12:07:05.218Z,11.27
2023-04-26T12:11:59.923Z,9.77
2023-04-26T12:16:53.864Z,16.63
2023-04-26T12:21:50.390Z,10.73
2023-04-26T12:26:45.666Z,7.60
2023-04-26T12:31:38.496Z,9.33
2023-04-26T12:36:31.547Z,10.10
2023-04-26T12:41:24.489Z,5.80
2023-04-26T12:46:19.193Z,6.10
2023-04-26T12:51:11.772Z,9.00
2023-04-26T12:56:04.752Z,7.37
2023-04-26T13:00:57.455Z,7.60
2023-04-26T13:05:51.767Z,6.90
2023-04-26T13:10:44.453Z,7.77
2023-04-26T13:15:37.056Z,7.80
2023-04-26T13:20:30.952Z,13.20
2023-04-26T13:25:24.942Z,7.10
2023-04-26T13:30:17.554Z,6.37
2023-04-26T13:35:11.985Z,10.10
2023-04-26T13:40:05.429Z,7.53
2023-04-26T13:44:59.801Z,8.67
2023-04-26T13:49:52.403Z,8.43
2023-04-26T13:54:44.969Z,6.93
2023-04-26T13:59:37.543Z,6.53
2023-04-26T14:04:31.560Z,5.50
2023-04-26T14:09:24.807Z,5.37
2023-04-26T14:14:17.345Z,6.50
2023-04-26T14:19:09.878Z,5.43
2023-04-26T14:24:03.861Z,4.90
2023-04-26T14:28:56.656Z,6.83
2023-04-26T14:33:49.350Z,5.20
2023-04-26T14:38:42.424Z,7.83
2023-04-26T14:43:36.455Z,6.20
2023-04-26T14:48:29.116Z,6.60
2023-04-26T14:53:21.787Z,5.90
2023-04-26T14:58:14.404Z,5.93
2023-04-26T15:03:08.592Z,7.07
2023-04-26T15:08:01.534Z,6.63
2023-04-26T15:12:54.218Z,9.87
2023-04-26T15:17:46.896Z,5.93
2023-04-26T15:22:41.112Z,7.73
2023-04-26T15:27:35.318Z,6.10
2023-04-26T15:32:27.959Z,5.80
2023-04-26T15:37:20.571Z,6.40
2023-04-26T15:42:14.585Z,4.23
2023-04-26T15:47:07.274Z,5.57
2023-04-26T15:51:59.961Z,5.03
2023-04-26T15:56:52.465Z,6.43
2023-04-26T16:01:46.421Z,5.60
2023-04-26T16:06:39.046Z,6.20
2023-04-26T16:11:32.298Z,5.23
2023-04-26T16:16:24.899Z,4.63
2023-04-26T16:21:19.016Z,6.03
2023-04-26T16:26:11.912Z,5.00
2023-04-26T16:31:04.812Z,4.90
2023-04-26T16:35:57.570Z,5.20
2023-04-26T16:40:57.913Z,4.20
2023-04-26T16:45:57.612Z,7.70
2023-04-26T16:50:50.359Z,4.40
2023-04-26T16:55:43.065Z,4.00
2023-04-26T17:00:37.332Z,5.60
2023-04-26T17:05:30.708Z,6.33
2023-04-26T17:10:23.453Z,6.10
2023-04-26T17:15:16.077Z,5.43
2023-04-26T17:20:13.478Z,6.70
2023-04-26T17:25:06.681Z,3.93
2023-04-26T17:29:59.316Z,6.27
2023-04-26T17:34:52.093Z,5.60
2023-04-26T17:39:46.062Z,7.00
2023-04-26T17:44:42.451Z,5.20
2023-04-26T17:49:35.380Z,6.90
2023-04-26T17:54:38.260Z,4.30
2023-04-26T17:59:32.941Z,7.97
2023-04-26T18:04:26.137Z,5.10
2023-04-26T18:09:19.110Z,5.90
2023-04-26T18:14:11.838Z,5.90
2023-04-26T18:19:05.864Z,10.27
2023-04-26T18:24:00.428Z,10.60
2023-04-26T18:28:53.258Z,12.67
2023-04-26T18:33:48.179Z,7.70
2023-04-26T18:38:42.246Z,6.40
2023-04-26T18:43:35.276Z,6.80
2023-04-26T18:48:28.201Z,5.73
2023-04-26T18:53:22.253Z,34.67
2023-04-26T18:58:16.829Z,7.53
2023-04-26T19:03:10.370Z,15.90
2023-04-26T19:08:03.822Z,18.03
2023-04-26T19:12:56.833Z,27.60
2023-04-26T19:17:50.793Z,11.90
2023-04-26T19:22:45.212Z,12.17
2023-04-26T19:27:37.815Z,12.30
2023-04-26T19:32:30.376Z,16.37
2023-04-26T19:37:24.445Z,12.40
2023-04-26T19:42:17.127Z,23.03
2023-04-26T19:47:09.792Z,18.20
2023-04-26T19:52:02.394Z,54.10
2023-04-26T19:56:56.353Z,23.30
2023-04-26T20:01:49.987Z,13.93
2023-04-26T20:06:44.252Z,12.33
2023-04-26T20:11:36.796Z,19.90
2023-04-26T20:16:30.703Z,18.20
2023-04-26T20:21:23.427Z,12.57
2023-04-26T20:26:16.134Z,14.20
2023-04-26T20:31:09.385Z,12.33
2023-04-26T20:36:03.285Z,13.53
2023-04-26T20:40:55.881Z,13.23
2023-04-26T20:45:48.713Z,13.00
2023-04-26T20:50:41.363Z,8.73
2023-04-26T20:55:36.133Z,8.27
2023-04-26T21:00:28.698Z,12.80
2023-04-26T21:05:21.627Z,11.93
2023-04-26T21:10:14.179Z,9.43
2023-04-26T21:15:08.995Z,10.10
2023-04-26T21:20:01.663Z,6.90
2023-04-26T21:24:54.343Z,8.63
2023-04-26T21:29:46.998Z,7.53
2023-04-26T21:34:40.981Z,8.20
2023-04-26T21:39:33.605Z,9.80
2023-04-26T21:44:26.218Z,9.80
2023-04-26T21:49:18.910Z,8.20
2023-04-26T21:54:13.555Z,8.93
2023-04-26T21:59:06.092Z,11.80
2023-04-26T22:03:58.743Z,11.00
2023-04-26T22:08:51.319Z,8.73
2023-04-26T22:13:45.220Z,9.43
2023-04-26T22:18:37.771Z,6.27
2023-04-26T22:23:31.360Z,9.80
2023-04-26T22:28:24.008Z,11.43
2023-04-26T22:33:17.970Z,7.90
2023-04-26T22:38:10.553Z,7.63
2023-04-26T22:43:03.170Z,9.07
2023-04-26T22:47:55.715Z,10.10
2023-04-26T22:52:49.747Z,15.83
2023-04-26T22:57:42.579Z,11.30
2023-04-26T23:02:35.160Z,8.43
2023-04-26T23:07:27.775Z,8.80
2023-04-26T23:12:21.673Z,17.07
2023-04-26T23:17:14.660Z,13.73
2023-04-26T23:22:07.312Z,11.60
2023-04-26T23:26:59.843Z,10.83
2023-04-26T23:31:53.832Z,10.03
2023-04-26T23:36:46.629Z,14.93
2023-04-26T23:41:39.222Z,11.97
2023-04-26T23:46:31.779Z,8.23
2023-04-26T23:51:26.789Z,11.83
2023-04-26T23:56:19.424Z,8.80
